Time,TemperatureF,DewpointF,PressureIn,WindDirection,WindDirectionDegrees,WindSpeedMPH,WindSpeedGustMPH,Humidity,HourlyPrecipIn,Conditions,Clouds,dailyrainin,SoftwareType,DateUTC
2013-12-03 00:01:00,35.4,32.5,29.92,North,0,0.0,0.0,89,0.00,,,0.00,pywws,2013-12-03 05:01:00,
2013-12-03 00:02:00,35.4,32.5,29.91,NE,45,0.0,0.0,89,0.00,,,0.00,pywws,2013-12-03 05:02:00,
2013-12-03 00:04:00,35.4,32.5,29.91,North,0,0.0,0.0,89,0.00,,,0.00,pywws,2013-12-03 05:04:00,
2013-12-03 00:08:00,35.4,32.5,29.91,North,0,0.0,0.0,89,0.00,,,0.00,pywws,2013-12-03 05:08:00,
2013-12-03 00:09:00,35.4,32.5,29.91,North,0,0.0,0.0,89,0.00,,,0.00,pywws,2013-12-03 05:09:00,
2013-12-03 00:16:00,35.4,32.5,29.91,North,0,0.0,0.0,89,0.00,,,0.00,pywws,2013-12-03 05:16:00,
2013-12-03 00:23:00,35.4,32.2,29.91,North,0,0.0,0.0,88,0.00,,,0.00,pywws,2013-12-03 05:23:00,
2013-12-03 00:29:00,35.4,32.2,29.91,North,0,0.0,0.0,88,0.00,,,0.00,pywws,2013-12-03 05:29:00,
2013-12-03 00:36:00,35.4,32.2,29.91,North,0,0.0,0.0,88,0.00,,,0.00,pywws,2013-12-03 05:36:00,
2013-12-03 00:42:00,35.4,32.2,29.91,North,0,0.0,0.0,88,0.00,,,0.00,pywws,2013-12-03 05:42:00,
2013-12-03 00:48:00,35.4,32.2,29.90,North,0,0.0,0.0,88,0.00,,,0.00,pywws,2013-12-03 05:48:00,
2013-12-03 00:55:00,35.6,32.1,29.91,North,0,0.0,0.0,87,0.00,,,0.00,pywws,2013-12-03 05:55:00,
2013-12-03 01:01:00,35.6,32.1,29.90,North,0,0.0,0.0,87,0.00,,,0.00,pywws,2013-12-03 06:01:00,
2013-12-03 01:07:00,35.6,32.1,29.90,North,0,0.0,0.0,87,0.00,,,0.00,pywws,2013-12-03 06:07:00,
2013-12-03 01:12:00,35.6,32.1,29.90,North,0,0.0,0.0,87,0.00,,,0.00,pywws,2013-12-03 06:12:00,
2013-12-03 01:18:00,35.6,32.1,29.91,NW,315,0.0,0.0,87,0.00,,,0.00,pywws,2013-12-03 06:18:00,
2013-12-03 01:24:00,35.8,32.3,29.90,North,0,0.0,0.0,87,0.00,,,0.00,pywws,2013-12-03 06:24:00,
2013-12-03 01:30:00,35.6,32.1,29.90,North,0,0.0,0.0,87,0.00,,,0.00,pywws,2013-12-03 06:30:00,
2013-12-03 01:36:00,35.6,32.1,29.91,North,0,0.0,0.0,87,0.00,,,0.00,pywws,2013-12-03 06:36:00,
2013-12-03 01:42:00,35.2,32.0,29.90,West,270,0.0,0.0,88,0.00,,,0.00,pywws,2013-12-03 06:42:00,
2013-12-03 01:48:00,35.1,31.9,29.91,North,0,0.0,0.0,88,0.00,,,0.00,pywws,2013-12-03 06:48:00,
2013-12-03 01:53:00,35.1,31.9,29.90,NW,315,0.0,0.0,88,0.00,,,0.00,pywws,2013-12-03 06:53:00,
2013-12-03 02:01:00,35.1,31.9,29.91,North,0,0.0,0.0,88,0.00,,,0.00,pywws,2013-12-03 07:01:00,
2013-12-03 02:07:00,35.1,31.9,29.91,North,0,0.0,0.0,88,0.00,,,0.00,pywws,2013-12-03 07:07:00,
2013-12-03 02:12:00,34.9,31.7,29.91,NE,45,0.0,0.0,88,0.00,,,0.00,pywws,2013-12-03 07:12:00,
2013-12-03 02:18:00,34.7,31.5,29.91,North,0,0.0,0.0,88,0.00,,,0.00,pywws,2013-12-03 07:18:00,
2013-12-03 02:24:00,34.5,31.3,29.91,East,90,0.0,0.0,88,0.00,,,0.00,pywws,2013-12-03 07:24:00,
2013-12-03 02:29:00,34.5,31.3,29.91,East,90,0.0,0.0,88,0.00,,,0.00,pywws,2013-12-03 07:29:00,
2013-12-03 02:35:00,34.3,31.2,29.91,North,0,0.0,0.0,88,0.00,,,0.00,pywws,2013-12-03 07:35:00,
2013-12-03 02:40:00,34.2,31.0,29.91,East,90,0.0,0.0,88,0.00,,,0.00,pywws,2013-12-03 07:40:00,
2013-12-03 02:46:00,34.2,31.0,29.91,NW,315,0.0,0.0,88,0.00,,,0.00,pywws,2013-12-03 07:46:00,
2013-12-03 02:52:00,34.2,31.0,29.91,North,0,0.0,0.0,88,0.00,,,0.00,pywws,2013-12-03 07:52:00,
2013-12-03 02:57:00,34.0,30.8,29.91,North,0,0.0,0.0,88,0.00,,,0.00,pywws,2013-12-03 07:57:00,
2013-12-03 03:03:00,34.0,30.8,29.91,West,270,0.0,0.0,88,0.00,,,0.00,pywws,2013-12-03 08:03:00,
2013-12-03 03:10:00,33.8,30.6,29.91,West,270,0.0,0.0,88,0.00,,,0.00,pywws,2013-12-03 08:10:00,
2013-12-03 03:16:00,33.8,30.3,29.90,NW,315,0.0,0.0,87,0.00,,,0.00,pywws,2013-12-03 08:16:00,
2013-12-03 03:23:00,33.8,30.3,29.90,NW,315,0.0,0.0,87,0.00,,,0.00,pywws,2013-12-03 08:23:00,
2013-12-03 03:29:00,33.8,30.3,29.90,North,0,0.0,0.0,87,0.00,,,0.00,pywws,2013-12-03 08:29:00,
2013-12-03 03:35:00,33.8,30.3,29.90,North,0,0.0,0.0,87,0.00,,,0.00,pywws,2013-12-03 08:35:00,
2013-12-03 03:40:00,33.4,30.3,29.89,North,0,0.0,0.0,88,0.00,,,0.00,pywws,2013-12-03 08:40:00,
2013-12-03 03:46:00,33.4,30.3,29.89,West,270,0.0,0.0,88,0.00,,,0.00,pywws,2013-12-03 08:46:00,
2013-12-03 03:53:00,33.3,30.1,29.90,West,270,0.0,0.0,88,0.00,,,0.00,pywws,2013-12-03 08:53:00,
2013-12-03 03:59:00,33.1,29.9,29.90,North,0,0.0,0.0,88,0.00,,,0.00,pywws,2013-12-03 08:59:00,
2013-12-03 04:04:00,33.1,29.9,29.90,North,0,0.0,0.0,88,0.00,,,0.00,pywws,2013-12-03 09:04:00,
2013-12-03 04:10:00,33.1,29.9,29.90,NW,315,0.0,0.0,88,0.00,,,0.00,pywws,2013-12-03 09:10:00,
2013-12-03 04:16:00,32.9,29.7,29.89,North,0,0.0,0.0,88,0.00,,,0.00,pywws,2013-12-03 09:16:00,
2013-12-03 04:21:00,32.7,29.6,29.90,North,0,0.0,0.0,88,0.00,,,0.00,pywws,2013-12-03 09:21:00,
2013-12-03 04:27:00,32.7,29.6,29.90,NW,315,0.0,0.0,88,0.00,,,0.00,pywws,2013-12-03 09:27:00,
2013-12-03 04:32:00,32.5,29.4,29.90,North,0,0.0,0.0,88,0.00,,,0.00,pywws,2013-12-03 09:32:00,
2013-12-03 04:38:00,32.4,29.2,29.90,North,0,0.0,0.0,88,0.00,,,0.00,pywws,2013-12-03 09:38:00,
2013-12-03 04:45:00,32.4,29.2,29.91,North,0,0.0,0.0,88,0.00,,,0.00,pywws,2013-12-03 09:45:00,
2013-12-03 04:51:00,32.2,29.0,29.91,North,0,0.0,0.0,88,0.00,,,0.00,pywws,2013-12-03 09:51:00,
2013-12-03 04:56:00,32.4,29.2,29.91,North,0,0.0,0.0,88,0.00,,,0.00,pywws,2013-12-03 09:56:00,
2013-12-03 05:02:00,32.4,29.2,29.91,North,0,0.0,0.0,88,0.00,,,0.00,pywws,2013-12-03 10:02:00,
2013-12-03 05:09:00,32.4,29.2,29.90,NW,315,0.0,0.0,88,0.00,,,0.00,pywws,2013-12-03 10:09:00,
2013-12-03 05:15:00,32.4,29.2,29.90,North,0,0.0,0.0,88,0.00,,,0.00,pywws,2013-12-03 10:15:00,
2013-12-03 05:20:00,32.4,29.2,29.91,North,0,0.0,0.0,88,0.00,,,0.00,pywws,2013-12-03 10:20:00,
2013-12-03 05:26:00,32.4,29.2,29.91,North,0,0.0,0.0,88,0.00,,,0.00,pywws,2013-12-03 10:26:00,
2013-12-03 05:32:00,32.4,29.2,29.91,North,0,0.0,0.0,88,0.00,,,0.00,pywws,2013-12-03 10:32:00,
2013-12-03 05:38:00,32.4,29.2,29.91,North,0,0.0,0.0,88,0.00,,,0.00,pywws,2013-12-03 10:38:00,
2013-12-03 05:44:00,32.4,29.2,29.91,NW,315,0.0,0.0,88,0.00,,,0.00,pywws,2013-12-03 10:44:00,
2013-12-03 05:51:00,32.4,29.2,29.91,North,0,0.0,0.0,88,0.00,,,0.00,pywws,2013-12-03 10:51:00,
2013-12-03 05:56:00,32.2,29.0,29.91,North,0,0.0,0.0,88,0.00,,,0.00,pywws,2013-12-03 10:56:00,
2013-12-03 06:02:00,32.2,29.0,29.90,North,0,0.0,0.0,88,0.00,,,0.00,pywws,2013-12-03 11:02:00,
2013-12-03 06:08:00,32.2,29.0,29.90,SW,225,0.0,0.0,88,0.00,,,0.00,pywws,2013-12-03 11:08:00,
2013-12-03 06:15:00,32.2,29.0,29.90,SW,225,0.0,0.0,88,0.00,,,0.00,pywws,2013-12-03 11:15:00,
2013-12-03 06:20:00,32.0,28.9,29.91,SW,225,0.0,0.0,88,0.00,,,0.00,pywws,2013-12-03 11:20:00,
2013-12-03 06:29:00,32.0,28.9,29.91,SW,225,0.0,0.0,88,0.00,,,0.00,pywws,2013-12-03 11:29:00,
2013-12-03 06:35:00,31.8,29.0,29.90,SW,225,0.0,0.0,89,0.00,,,0.00,pywws,2013-12-03 11:35:00,
2013-12-03 06:40:00,31.5,28.6,29.90,NW,315,0.0,0.0,89,0.00,,,0.00,pywws,2013-12-03 11:40:00,
2013-12-03 06:46:00,31.3,28.4,29.90,West,270,0.0,0.0,89,0.00,,,0.00,pywws,2013-12-03 11:46:00,
2013-12-03 06:52:00,31.1,28.2,29.90,North,0,0.0,0.0,89,0.00,,,0.00,pywws,2013-12-03 11:52:00,
2013-12-03 06:58:00,31.1,28.2,29.90,North,0,0.0,0.0,89,0.00,,,0.00,pywws,2013-12-03 11:58:00,
2013-12-03 07:04:00,30.9,28.1,29.90,North,0,0.0,0.0,89,0.00,,,0.00,pywws,2013-12-03 12:04:00,
2013-12-03 07:10:00,30.7,27.9,29.90,North,0,0.0,0.0,89,0.00,,,0.00,pywws,2013-12-03 12:10:00,
2013-12-03 07:17:00,30.6,27.7,29.91,North,0,0.0,0.0,89,0.00,,,0.00,pywws,2013-12-03 12:17:00,
2013-12-03 07:24:00,30.6,27.7,29.91,North,0,0.0,0.0,89,0.00,,,0.00,pywws,2013-12-03 12:24:00,
2013-12-03 07:32:00,30.6,27.7,29.91,North,0,0.0,0.0,89,0.00,,,0.00,pywws,2013-12-03 12:32:00,
2013-12-03 07:39:00,30.6,27.7,29.91,North,0,0.0,0.0,89,0.00,,,0.00,pywws,2013-12-03 12:39:00,
2013-12-03 07:44:00,30.6,27.7,29.91,West,270,0.0,0.0,89,0.00,,,0.00,pywws,2013-12-03 12:44:00,
2013-12-03 07:50:00,30.6,27.7,29.90,West,270,0.0,0.0,89,0.00,,,0.00,pywws,2013-12-03 12:50:00,
2013-12-03 07:56:00,30.6,27.7,29.90,West,270,0.0,0.0,89,0.00,,,0.00,pywws,2013-12-03 12:56:00,
2013-12-03 08:02:00,30.4,27.5,29.90,West,270,0.0,0.0,89,0.00,,,0.00,pywws,2013-12-03 13:02:00,
2013-12-03 08:08:00,30.7,27.9,29.90,West,270,0.0,0.0,89,0.00,,,0.00,pywws,2013-12-03 13:08:00,
2013-12-03 08:14:00,31.1,28.2,29.90,East,90,0.0,0.0,89,0.00,,,0.00,pywws,2013-12-03 13:14:00,
2013-12-03 08:20:00,31.3,28.4,29.90,North,0,0.0,0.0,89,0.00,,,0.00,pywws,2013-12-03 13:20:00,
2013-12-03 08:25:00,31.3,28.4,29.90,North,0,0.0,0.0,89,0.00,,,0.00,pywws,2013-12-03 13:25:00,
2013-12-03 08:31:00,31.3,28.4,29.90,North,0,0.0,0.0,89,0.00,,,0.00,pywws,2013-12-03 13:31:00,
2013-12-03 08:36:00,31.3,28.4,29.90,North,0,0.0,0.0,89,0.00,,,0.00,pywws,2013-12-03 13:36:00,
2013-12-03 08:42:00,31.6,28.8,29.90,East,90,0.0,0.0,89,0.00,,,0.00,pywws,2013-12-03 13:42:00,
2013-12-03 08:48:00,32.0,28.9,29.90,East,90,0.0,0.0,88,0.00,,,0.00,pywws,2013-12-03 13:48:00,
2013-12-03 08:55:00,32.7,29.6,29.90,North,0,0.0,0.0,88,0.00,,,0.00,pywws,2013-12-03 13:55:00,
2013-12-03 09:00:00,32.4,29.2,29.91,North,0,0.0,0.0,88,0.00,,,0.00,pywws,2013-12-03 14:00:00,
2013-12-03 09:06:00,33.1,29.9,29.90,North,0,0.0,0.0,88,0.00,,,0.00,pywws,2013-12-03 14:06:00,
2013-12-03 09:12:00,34.0,30.8,29.90,East,90,0.0,0.0,88,0.00,,,0.00,pywws,2013-12-03 14:12:00,
2013-12-03 09:17:00,34.0,30.8,29.90,West,270,0.0,0.0,88,0.00,,,0.00,pywws,2013-12-03 14:17:00,
2013-12-03 09:23:00,33.4,30.6,29.90,West,270,0.0,0.0,89,0.00,,,0.00,pywws,2013-12-03 14:23:00,
2013-12-03 09:28:00,34.0,30.8,29.90,East,90,0.0,0.0,88,0.00,,,0.00,pywws,2013-12-03 14:28:00,
2013-12-03 09:34:00,34.2,31.0,29.89,East,90,0.0,0.0,88,0.00,,,0.00,pywws,2013-12-03 14:34:00,
2013-12-03 09:40:00,35.2,32.0,29.90,East,90,0.0,0.0,88,0.00,,,0.00,pywws,2013-12-03 14:40:00,
2013-12-03 09:45:00,35.6,32.1,29.90,East,90,0.0,0.0,87,0.00,,,0.00,pywws,2013-12-03 14:45:00,
2013-12-03 09:51:00,36.3,32.8,29.90,North,0,0.0,0.0,87,0.00,,,0.00,pywws,2013-12-03 14:51:00,
2013-12-03 09:56:00,37.0,33.5,29.90,East,90,0.0,0.0,87,0.00,,,0.00,pywws,2013-12-03 14:56:00,
2013-12-03 10:02:00,39.2,36.5,29.90,East,90,0.0,0.0,90,0.00,,,0.00,pywws,2013-12-03 15:02:00,
2013-12-03 10:08:00,39.6,36.6,29.90,East,90,0.0,0.0,89,0.00,,,0.00,pywws,2013-12-03 15:08:00,
2013-12-03 10:13:00,40.5,36.9,29.90,NE,45,0.0,0.0,87,0.00,,,0.00,pywws,2013-12-03 15:13:00,
2013-12-03 10:19:00,41.9,37.4,29.90,East,90,0.0,0.0,84,0.00,,,0.00,pywws,2013-12-03 15:19:00,
2013-12-03 10:24:00,42.1,37.0,29.90,NE,45,0.0,0.0,82,0.00,,,0.00,pywws,2013-12-03 15:24:00,
2013-12-03 10:30:00,43.7,37.6,29.90,NE,45,0.0,0.0,79,0.00,,,0.00,pywws,2013-12-03 15:30:00,
2013-12-03 10:36:00,43.5,36.5,29.89,East,90,0.0,0.0,76,0.00,,,0.00,pywws,2013-12-03 15:36:00,
2013-12-03 10:41:00,43.9,36.5,29.89,East,90,0.0,0.0,75,0.00,,,0.00,pywws,2013-12-03 15:41:00,
2013-12-03 10:47:00,43.2,35.4,29.89,East,90,0.0,0.0,74,0.00,,,0.00,pywws,2013-12-03 15:47:00,
2013-12-03 10:52:00,43.7,36.0,29.88,East,90,0.0,0.0,74,0.00,,,0.00,pywws,2013-12-03 15:52:00,
2013-12-03 10:58:00,44.1,36.0,29.87,NE,45,0.0,0.0,73,0.00,,,0.00,pywws,2013-12-03 15:58:00,
2013-12-03 11:04:00,44.6,36.1,29.87,East,90,0.0,0.0,72,0.00,,,0.00,pywws,2013-12-03 16:04:00,
2013-12-03 11:10:00,45.0,36.1,29.87,North,0,0.0,0.0,71,0.00,,,0.00,pywws,2013-12-03 16:10:00,
2013-12-03 11:16:00,45.0,36.1,29.87,North,0,0.0,0.0,71,0.00,,,0.00,pywws,2013-12-03 16:16:00,
2013-12-03 11:21:00,46.2,36.6,29.87,East,90,0.0,0.0,69,0.00,,,0.00,pywws,2013-12-03 16:21:00,
2013-12-03 11:27:00,45.9,35.2,29.87,NE,45,0.0,0.0,66,0.00,,,0.00,pywws,2013-12-03 16:27:00,
2013-12-03 11:32:00,46.2,35.1,29.86,North,0,0.0,0.0,65,0.00,,,0.00,pywws,2013-12-03 16:32:00,
2013-12-03 11:38:00,46.8,36.0,29.86,North,0,0.0,0.0,66,0.00,,,0.00,pywws,2013-12-03 16:38:00,
2013-12-03 11:44:00,47.5,36.3,29.86,East,90,0.0,0.0,65,0.00,,,0.00,pywws,2013-12-03 16:44:00,
2013-12-03 11:49:00,48.0,34.8,29.85,NE,45,0.0,0.0,60,0.00,,,0.00,pywws,2013-12-03 16:49:00,
2013-12-03 11:55:00,48.9,34.4,29.86,West,270,0.0,0.0,57,0.00,,,0.00,pywws,2013-12-03 16:55:00,
2013-12-03 12:00:00,49.5,34.4,29.86,North,0,0.0,0.0,56,0.00,,,0.00,pywws,2013-12-03 17:00:00,
2013-12-03 12:06:00,48.9,33.0,29.85,NW,315,0.0,0.0,54,0.00,,,0.00,pywws,2013-12-03 17:06:00,
2013-12-03 12:12:00,48.7,31.9,29.85,SE,135,0.0,2.2,52,0.00,,,0.00,pywws,2013-12-03 17:12:00,
2013-12-03 12:17:00,49.1,32.2,29.85,NW,315,0.0,1.6,52,0.00,,,0.00,pywws,2013-12-03 17:17:00,
2013-12-03 12:23:00,49.6,33.2,29.85,West,270,0.0,0.0,53,0.00,,,0.00,pywws,2013-12-03 17:23:00,
2013-12-03 12:28:00,49.5,33.0,29.85,NE,45,0.0,0.0,53,0.00,,,0.00,pywws,2013-12-03 17:28:00,
2013-12-03 12:34:00,49.6,33.2,29.85,North,0,0.0,0.0,53,0.00,,,0.00,pywws,2013-12-03 17:34:00,
2013-12-03 12:40:00,49.5,33.0,29.85,North,0,0.0,0.0,53,0.00,,,0.00,pywws,2013-12-03 17:40:00,
2013-12-03 12:45:00,49.5,33.0,29.85,North,0,0.0,0.0,53,0.00,,,0.00,pywws,2013-12-03 17:45:00,
2013-12-03 12:51:00,49.1,32.7,29.85,West,270,0.0,0.7,53,0.00,,,0.00,pywws,2013-12-03 17:51:00,
2013-12-03 12:56:00,49.3,33.3,29.85,South,180,0.0,2.2,54,0.00,,,0.00,pywws,2013-12-03 17:56:00,
2013-12-03 13:02:00,49.5,32.6,29.85,North,0,0.0,0.0,52,0.00,,,0.00,pywws,2013-12-03 18:02:00,
2013-12-03 13:08:00,49.5,32.1,29.85,West,270,0.0,0.0,51,0.00,,,0.00,pywws,2013-12-03 18:08:00,
2013-12-03 13:13:00,49.8,32.4,29.84,East,90,0.0,0.0,51,0.00,,,0.00,pywws,2013-12-03 18:13:00,
2013-12-03 13:19:00,50.4,32.4,29.85,North,0,0.0,0.0,50,0.00,,,0.00,pywws,2013-12-03 18:19:00,
2013-12-03 13:24:00,50.2,31.3,29.85,NW,315,0.0,1.6,48,0.00,,,0.00,pywws,2013-12-03 18:24:00,
2013-12-03 13:30:00,50.0,31.1,29.85,North,0,0.0,0.0,48,0.00,,,0.00,pywws,2013-12-03 18:30:00,
2013-12-03 13:36:00,50.2,31.3,29.84,North,0,0.0,0.0,48,0.00,,,0.00,pywws,2013-12-03 18:36:00,
2013-12-03 13:41:00,50.5,32.1,29.85,North,0,0.0,1.6,49,0.00,,,0.00,pywws,2013-12-03 18:41:00,
2013-12-03 13:47:00,50.5,32.1,29.85,NW,315,0.0,0.0,49,0.00,,,0.00,pywws,2013-12-03 18:47:00,
2013-12-03 13:52:00,50.0,31.1,29.85,North,0,0.0,0.0,48,0.00,,,0.00,pywws,2013-12-03 18:52:00,
2013-12-03 13:58:00,49.8,31.4,29.85,SE,135,0.0,0.0,49,0.00,,,0.00,pywws,2013-12-03 18:58:00,
2013-12-03 14:04:00,49.8,31.9,29.85,North,0,0.0,0.0,50,0.00,,,0.00,pywws,2013-12-03 19:04:00,
2013-12-03 14:09:00,49.6,31.8,29.85,North,0,1.6,5.4,50,0.00,,,0.00,pywws,2013-12-03 19:09:00,
2013-12-03 14:15:00,49.8,31.9,29.85,North,0,0.0,0.0,50,0.00,,,0.00,pywws,2013-12-03 19:15:00,
2013-12-03 14:20:00,49.6,31.8,29.85,NW,315,0.0,0.0,50,0.00,,,0.00,pywws,2013-12-03 19:20:00,
2013-12-03 14:26:00,49.5,31.6,29.85,East,90,0.0,0.0,50,0.00,,,0.00,pywws,2013-12-03 19:26:00,
2013-12-03 14:32:00,50.2,32.3,29.85,NW,315,0.0,0.7,50,0.00,,,0.00,pywws,2013-12-03 19:32:00,
2013-12-03 14:37:00,49.8,32.9,29.86,NW,315,0.0,0.0,52,0.00,,,0.00,pywws,2013-12-03 19:37:00,
2013-12-03 14:43:00,49.3,32.4,29.85,North,0,0.0,0.0,52,0.00,,,0.00,pywws,2013-12-03 19:43:00,
2013-12-03 14:48:00,48.7,32.8,29.86,North,0,0.0,0.0,54,0.00,,,0.00,pywws,2013-12-03 19:48:00,
2013-12-03 14:54:00,49.1,33.2,29.85,North,0,0.0,0.0,54,0.00,,,0.00,pywws,2013-12-03 19:54:00,
2013-12-03 15:00:00,48.9,33.0,29.85,North,0,0.0,2.2,54,0.00,,,0.00,pywws,2013-12-03 20:00:00,
2013-12-03 15:05:00,48.6,33.1,29.85,North,0,0.0,0.7,55,0.00,,,0.00,pywws,2013-12-03 20:05:00,
2013-12-03 15:11:00,48.0,33.5,29.86,North,0,0.0,0.0,57,0.00,,,0.00,pywws,2013-12-03 20:11:00,
2013-12-03 15:17:00,47.8,33.4,29.86,North,0,0.0,0.0,57,0.00,,,0.00,pywws,2013-12-03 20:17:00,
2013-12-03 15:23:00,48.0,33.5,29.86,NE,45,0.0,0.0,57,0.00,,,0.00,pywws,2013-12-03 20:23:00,
2013-12-03 15:28:00,47.7,33.6,29.85,West,270,0.0,0.0,58,0.00,,,0.00,pywws,2013-12-03 20:28:00,
2013-12-03 15:34:00,47.3,33.3,29.86,SE,135,0.0,0.0,58,0.00,,,0.00,pywws,2013-12-03 20:34:00,
2013-12-03 15:40:00,46.6,33.0,29.86,West,270,0.0,0.0,59,0.00,,,0.00,pywws,2013-12-03 20:40:00,
2013-12-03 15:45:00,46.9,32.9,29.87,North,0,0.0,0.0,58,0.00,,,0.00,pywws,2013-12-03 20:45:00,
2013-12-03 15:51:00,46.2,32.3,29.86,East,90,0.0,0.0,58,0.00,,,0.00,pywws,2013-12-03 20:51:00,
2013-12-03 15:56:00,45.9,32.4,29.86,North,0,0.0,0.0,59,0.00,,,0.00,pywws,2013-12-03 20:56:00,
2013-12-03 16:02:00,45.9,32.4,29.87,North,0,0.0,0.0,59,0.00,,,0.00,pywws,2013-12-03 21:02:00,
2013-12-03 16:08:00,45.3,31.8,29.87,North,0,0.0,0.0,59,0.00,,,0.00,pywws,2013-12-03 21:08:00,
2013-12-03 16:14:00,45.5,32.4,29.87,East,90,0.0,0.0,60,0.00,,,0.00,pywws,2013-12-03 21:14:00,
2013-12-03 16:21:00,44.6,31.6,29.88,North,0,0.0,0.0,60,0.00,,,0.00,pywws,2013-12-03 21:21:00,
2013-12-03 16:27:00,43.7,31.5,29.88,West,270,0.0,0.0,62,0.00,,,0.00,pywws,2013-12-03 21:27:00,
2013-12-03 16:32:00,44.1,32.3,29.88,North,0,0.0,0.0,63,0.00,,,0.00,pywws,2013-12-03 21:32:00,
2013-12-03 16:38:00,42.1,30.8,29.88,North,0,0.0,0.0,64,0.00,,,0.00,pywws,2013-12-03 21:38:00,
2013-12-03 16:44:00,41.0,30.5,29.88,North,0,0.0,0.0,66,0.00,,,0.00,pywws,2013-12-03 21:44:00,
2013-12-03 16:49:00,39.7,30.4,29.88,North,0,0.0,0.0,69,0.00,,,0.00,pywws,2013-12-03 21:49:00,
2013-12-03 16:55:00,38.8,30.9,29.89,North,0,0.0,0.0,73,0.00,,,0.00,pywws,2013-12-03 21:55:00,
2013-12-03 17:00:00,38.3,31.1,29.89,North,0,0.0,0.0,75,0.00,,,0.00,pywws,2013-12-03 22:00:00,
2013-12-03 17:06:00,37.8,30.9,29.90,North,0,0.0,0.0,76,0.00,,,0.00,pywws,2013-12-03 22:06:00,
2013-12-03 17:12:00,37.0,28.9,29.90,North,0,0.0,0.0,72,0.00,,,0.00,pywws,2013-12-03 22:12:00,
2013-12-03 17:17:00,36.5,28.7,29.90,North,0,0.0,0.0,73,0.00,,,0.00,pywws,2013-12-03 22:17:00,
2013-12-03 17:24:00,36.1,28.7,29.90,North,0,0.0,0.0,74,0.00,,,0.00,pywws,2013-12-03 22:24:00,
2013-12-03 17:30:00,35.8,28.6,29.90,North,0,0.0,0.0,75,0.00,,,0.00,pywws,2013-12-03 22:30:00,
2013-12-03 17:36:00,35.6,28.8,29.91,North,0,0.0,0.0,76,0.00,,,0.00,pywws,2013-12-03 22:36:00,
2013-12-03 17:42:00,35.4,28.9,29.90,East,90,0.0,0.0,77,0.00,,,0.00,pywws,2013-12-03 22:42:00,
2013-12-03 17:50:00,35.6,29.1,29.90,North,0,0.0,0.0,77,0.00,,,0.00,pywws,2013-12-03 22:50:00,
2013-12-03 17:56:00,35.1,29.2,29.91,NW,315,0.0,0.0,79,0.00,,,0.00,pywws,2013-12-03 22:56:00,
2013-12-03 18:03:00,35.1,29.2,29.91,South,180,0.0,0.0,79,0.00,,,0.00,pywws,2013-12-03 23:03:00,
2013-12-03 18:08:00,35.6,29.7,29.91,South,180,0.0,0.0,79,0.00,,,0.00,pywws,2013-12-03 23:08:00,
2013-12-03 18:14:00,35.1,29.5,29.91,South,180,0.0,0.0,80,0.00,,,0.00,pywws,2013-12-03 23:14:00,
2013-12-03 18:20:00,34.9,29.0,29.91,South,180,0.0,0.0,79,0.00,,,0.00,pywws,2013-12-03 23:20:00,
2013-12-03 18:27:00,34.0,28.2,29.92,South,180,0.0,0.0,79,0.00,,,0.00,pywws,2013-12-03 23:27:00,
2013-12-03 18:35:00,34.0,28.5,29.91,South,180,0.0,0.0,80,0.00,,,0.00,pywws,2013-12-03 23:35:00,
2013-12-03 18:40:00,33.6,28.7,29.92,South,180,0.0,0.0,82,0.00,,,0.00,pywws,2013-12-03 23:40:00,
2013-12-03 18:46:00,33.3,28.4,29.92,South,180,0.0,0.0,82,0.00,,,0.00,pywws,2013-12-03 23:46:00,
2013-12-03 18:52:00,32.7,27.8,29.92,South,180,0.0,0.0,82,0.00,,,0.00,pywws,2013-12-03 23:52:00,
2013-12-03 18:57:00,32.9,28.3,29.92,South,180,0.0,0.0,83,0.00,,,0.00,pywws,2013-12-03 23:57:00,
2013-12-03 19:03:00,32.7,28.1,29.92,South,180,0.0,0.0,83,0.00,,,0.00,pywws,2013-12-04 00:03:00,
2013-12-03 19:09:00,32.7,28.1,29.92,South,180,0.0,0.0,83,0.00,,,0.00,pywws,2013-12-04 00:09:00,
2013-12-03 19:15:00,32.4,27.8,29.92,South,180,0.0,0.0,83,0.00,,,0.00,pywws,2013-12-04 00:15:00,
2013-12-03 19:21:00,32.2,27.9,29.92,South,180,0.0,0.0,84,0.00,,,0.00,pywws,2013-12-04 00:21:00,
2013-12-03 19:27:00,32.2,27.9,29.92,South,180,0.0,0.0,84,0.00,,,0.00,pywws,2013-12-04 00:27:00,
2013-12-03 19:32:00,32.2,27.9,29.93,North,0,0.0,0.0,84,0.00,,,0.00,pywws,2013-12-04 00:32:00,
2013-12-03 19:38:00,32.2,27.9,29.93,North,0,0.0,0.0,84,0.00,,,0.00,pywws,2013-12-04 00:38:00,
2013-12-03 19:44:00,32.0,27.7,29.93,North,0,0.0,0.0,84,0.00,,,0.00,pywws,2013-12-04 00:44:00,
2013-12-03 19:49:00,34.0,29.7,29.93,North,0,0.0,0.0,84,0.00,,,0.00,pywws,2013-12-04 00:49:00,
2013-12-03 19:55:00,33.8,29.5,29.93,North,0,0.0,0.0,84,0.00,,,0.00,pywws,2013-12-04 00:55:00,
2013-12-03 20:00:00,33.8,29.5,29.93,North,0,0.0,0.0,84,0.00,,,0.00,pywws,2013-12-04 01:00:00,
2013-12-03 20:06:00,33.6,29.3,29.93,North,0,0.0,0.0,84,0.00,,,0.00,pywws,2013-12-04 01:06:00,
2013-12-03 20:12:00,32.5,28.3,29.93,North,0,0.0,0.0,84,0.00,,,0.00,pywws,2013-12-04 01:12:00,
2013-12-03 20:18:00,32.9,28.6,29.93,North,0,0.0,0.0,84,0.00,,,0.00,pywws,2013-12-04 01:18:00,
2013-12-03 20:24:00,32.4,28.1,29.92,North,0,0.0,0.0,84,0.00,,,0.00,pywws,2013-12-04 01:24:00,
2013-12-03 20:29:00,32.2,27.9,29.92,North,0,0.0,0.0,84,0.00,,,0.00,pywws,2013-12-04 01:29:00,
2013-12-03 20:35:00,31.8,27.8,29.93,North,0,0.0,0.0,85,0.00,,,0.00,pywws,2013-12-04 01:35:00,
2013-12-03 20:40:00,31.5,27.5,29.93,North,0,0.0,0.0,85,0.00,,,0.00,pywws,2013-12-04 01:40:00,
2013-12-03 20:46:00,30.9,27.0,29.93,North,0,0.0,0.0,85,0.00,,,0.00,pywws,2013-12-04 01:46:00,
2013-12-03 20:53:00,30.6,26.6,29.93,North,0,0.0,0.0,85,0.00,,,0.00,pywws,2013-12-04 01:53:00,
2013-12-03 20:59:00,30.7,26.8,29.93,North,0,0.0,0.0,85,0.00,,,0.00,pywws,2013-12-04 01:59:00,
2013-12-03 21:04:00,30.9,27.0,29.93,North,0,0.0,0.0,85,0.00,,,0.00,pywws,2013-12-04 02:04:00,
2013-12-03 21:10:00,30.2,26.2,29.93,West,270,0.0,0.0,85,0.00,,,0.00,pywws,2013-12-04 02:10:00,
2013-12-03 21:16:00,30.2,26.2,29.93,East,90,0.0,0.0,85,0.00,,,0.00,pywws,2013-12-04 02:16:00,
2013-12-03 21:22:00,30.2,26.2,29.93,East,90,0.0,0.0,85,0.00,,,0.00,pywws,2013-12-04 02:22:00,
2013-12-03 21:29:00,29.8,26.2,29.93,East,90,0.0,0.0,86,0.00,,,0.00,pywws,2013-12-04 02:29:00,
2013-12-03 21:35:00,29.7,26.0,29.93,East,90,0.0,0.0,86,0.00,,,0.00,pywws,2013-12-04 02:35:00,
2013-12-03 21:40:00,28.9,25.3,29.93,North,0,0.0,0.0,86,0.00,,,0.00,pywws,2013-12-04 02:40:00,
2013-12-03 21:46:00,29.1,25.5,29.94,North,0,0.0,0.0,86,0.00,,,0.00,pywws,2013-12-04 02:46:00,
2013-12-03 21:52:00,28.4,24.8,29.93,North,0,0.0,0.0,86,0.00,,,0.00,pywws,2013-12-04 02:52:00,
2013-12-03 21:57:00,28.2,23.4,29.94,North,0,0.0,0.0,82,0.00,,,0.00,pywws,2013-12-04 02:57:00,
2013-12-03 22:03:00,27.9,23.1,29.93,North,0,0.0,0.0,82,0.00,,,0.00,pywws,2013-12-04 03:03:00,
2013-12-03 22:08:00,28.4,24.8,29.94,North,0,0.0,0.0,86,0.00,,,0.00,pywws,2013-12-04 03:08:00,
2013-12-03 22:14:00,27.9,23.1,29.93,North,0,0.0,0.0,82,0.00,,,0.00,pywws,2013-12-04 03:14:00,
2013-12-03 22:20:00,28.2,23.4,29.94,North,0,0.0,0.0,82,0.00,,,0.00,pywws,2013-12-04 03:20:00,
2013-12-03 22:26:00,27.5,22.7,29.94,North,0,0.0,0.0,82,0.00,,,0.00,pywws,2013-12-04 03:26:00,
2013-12-03 22:32:00,26.8,22.0,29.94,North,0,0.0,0.0,82,0.00,,,0.00,pywws,2013-12-04 03:32:00,
2013-12-03 22:38:00,26.8,22.0,29.94,North,0,0.0,0.0,82,0.00,,,0.00,pywws,2013-12-04 03:38:00,
2013-12-03 22:44:00,27.3,22.6,29.94,North,0,0.0,0.0,82,0.00,,,0.00,pywws,2013-12-04 03:44:00,
2013-12-03 22:49:00,26.4,22.0,29.94,North,0,0.0,0.0,83,0.00,,,0.00,pywws,2013-12-04 03:49:00,
2013-12-03 22:55:00,26.8,22.0,29.94,North,0,0.0,0.0,82,0.00,,,0.00,pywws,2013-12-04 03:55:00,
2013-12-03 23:00:00,26.2,21.8,29.94,North,0,0.0,0.0,83,0.00,,,0.00,pywws,2013-12-04 04:00:00,
2013-12-03 23:06:00,26.2,21.8,29.95,North,0,0.0,0.0,83,0.00,,,0.00,pywws,2013-12-04 04:06:00,
2013-12-03 23:12:00,26.6,21.9,29.96,North,0,0.0,0.0,82,0.00,,,0.00,pywws,2013-12-04 04:12:00,
2013-12-03 23:18:00,27.0,22.5,29.96,North,0,0.0,0.0,83,0.00,,,0.00,pywws,2013-12-04 04:18:00,
2013-12-03 23:24:00,26.4,22.3,29.96,North,0,0.0,0.0,84,0.00,,,0.00,pywws,2013-12-04 04:24:00,
2013-12-03 23:29:00,26.2,22.1,29.96,North,0,0.0,0.0,84,0.00,,,0.00,pywws,2013-12-04 04:29:00,
2013-12-03 23:36:00,25.9,21.4,29.96,North,0,0.0,0.0,83,0.00,,,0.00,pywws,2013-12-04 04:36:00,
2013-12-03 23:41:00,26.2,22.1,29.95,North,0,0.0,0.0,84,0.00,,,0.00,pywws,2013-12-04 04:41:00,
2013-12-03 23:47:00,25.9,21.7,29.95,North,0,0.0,0.0,84,0.00,,,0.00,pywws,2013-12-04 04:47:00,
2013-12-03 23:53:00,25.9,21.4,29.96,North,0,0.0,0.0,83,0.00,,,0.00,pywws,2013-12-04 04:53:00,
2013-12-03 23:59:00,25.5,21.1,29.95,North,0,0.0,0.0,83,0.00,,,0.00,pywws,2013-12-04 04:59:00,